Terminal Aerodrome Forecast
Issued by NWS

Home | Current Version | Previous Version | Text Only | Print | Product List | Glossary On
Versions: 1 2 3 4 5 6 7 8 9 10 11 12 13 14 15 16 17 18 19
000
FTUS45 KRIW 261741
TAFCPR
TAF
KCPR 261741Z 2618/2718 27013KT P6SM FEW035 SCT250
     FM261900 27011G17KT P6SM SCT050 BKN080
     FM270200 02007KT P6SM FEW020 BKN070
     FM270900 23008KT P6SM VCSH SCT030 BKN050=

USA.gov is the U.S. government's official web portal to all federal, state and local government web resources and services.